sensor_id;sensor_type;location;lat;lon;timestamp;temperature;humidity
5802;DHT22;2927;49.366;8.530;2023-01-04T00:00:21;4.80;99.90
5802;DHT22;2927;49.366;8.530;2023-01-04T00:02:47;4.80;99.90
5802;DHT22;2927;49.366;8.530;2023-01-04T00:05:12;4.80;99.90
5802;DHT22;2927;49.366;8.530;2023-01-04T00:07:38;4.80;99.90
5802;DHT22;2927;49.366;8.530;2023-01-04T00:10:04;4.90;99.90
5802;DHT22;2927;49.366;8.530;2023-01-04T00:12:29;4.90;99.90
5802;DHT22;2927;49.366;8.530;2023-01-04T00:14:55;5.00;99.90
5802;DHT22;2927;49.366;8.530;2023-01-04T00:17:20;5.00;99.90
5802;DHT22;2927;49.366;8.530;2023-01-04T00:19:46;4.90;99.90
5802;DHT22;2927;49.366;8.530;2023-01-04T00:22:12;5.00;99.90
5802;DHT22;2927;49.366;8.530;2023-01-04T00:24:37;5.00;99.90
5802;DHT22;2927;49.366;8.530;2023-01-04T00:27:03;5.00;99.90
5802;DHT22;2927;49.366;8.530;2023-01-04T00:29:28;4.90;99.90
5802;DHT22;2927;49.366;8.530;2023-01-04T00:31:54;5.00;99.90
5802;DHT22;2927;49.366;8.530;2023-01-04T00:34:19;5.00;99.90
5802;DHT22;2927;49.366;8.530;2023-01-04T00:36:45;4.90;99.90
5802;DHT22;2927;49.366;8.530;2023-01-04T00:39:13;4.90;99.90
5802;DHT22;2927;49.366;8.530;2023-01-04T00:41:50;4.90;99.90
5802;DHT22;2927;49.366;8.530;2023-01-04T00:44:16;4.90;99.90
5802;DHT22;2927;49.366;8.530;2023-01-04T00:46:43;4.90;99.90
5802;DHT22;2927;49.366;8.530;2023-01-04T00:49:10;4.90;99.90
5802;DHT22;2927;49.366;8.530;2023-01-04T00:51:37;4.90;99.90
5802;DHT22;2927;49.366;8.530;2023-01-04T00:54:06;4.90;99.90
5802;DHT22;2927;49.366;8.530;2023-01-04T00:56:33;4.90;99.90
5802;DHT22;2927;49.366;8.530;2023-01-04T00:59:00;4.90;99.90
5802;DHT22;2927;49.366;8.530;2023-01-04T01:01:27;4.90;99.90
5802;DHT22;2927;49.366;8.530;2023-01-04T01:03:54;5.00;99.90
5802;DHT22;2927;49.366;8.530;2023-01-04T01:06:20;5.00;99.90
5802;DHT22;2927;49.366;8.530;2023-01-04T01:08:46;4.90;99.90
5802;DHT22;2927;49.366;8.530;2023-01-04T01:11:12;4.90;99.90
5802;DHT22;2927;49.366;8.530;2023-01-04T01:13:38;4.90;99.90
5802;DHT22;2927;49.366;8.530;2023-01-04T01:16:08;4.90;99.90
5802;DHT22;2927;49.366;8.530;2023-01-04T01:18:35;4.80;99.90
5802;DHT22;2927;49.366;8.530;2023-01-04T01:21:05;4.80;99.90
5802;DHT22;2927;49.366;8.530;2023-01-04T01:23:31;4.90;99.90
5802;DHT22;2927;49.366;8.530;2023-01-04T01:26:04;4.80;99.90
5802;DHT22;2927;49.366;8.530;2023-01-04T01:28:30;4.80;99.90
5802;DHT22;2927;49.366;8.530;2023-01-04T01:30:56;4.80;99.90
5802;DHT22;2927;49.366;8.530;2023-01-04T01:33:25;4.80;99.90
5802;DHT22;2927;49.366;8.530;2023-01-04T01:35:50;4.80;99.90
5802;DHT22;2927;49.366;8.530;2023-01-04T01:38:16;4.90;99.90
5802;DHT22;2927;49.366;8.530;2023-01-04T01:40:42;4.90;99.90
5802;DHT22;2927;49.366;8.530;2023-01-04T01:43:19;4.90;99.90
5802;DHT22;2927;49.366;8.530;2023-01-04T01:45:48;4.90;99.90
5802;DHT22;2927;49.366;8.530;2023-01-04T01:48:17;5.00;99.90
5802;DHT22;2927;49.366;8.530;2023-01-04T01:51:00;5.00;99.90
5802;DHT22;2927;49.366;8.530;2023-01-04T01:53:27;5.10;99.90
5802;DHT22;2927;49.366;8.530;2023-01-04T01:55:55;5.10;99.90
5802;DHT22;2927;49.366;8.530;2023-01-04T01:58:30;5.10;99.90
5802;DHT22;2927;49.366;8.530;2023-01-04T02:00:57;5.10;99.90
5802;DHT22;2927;49.366;8.530;2023-01-04T02:03:32;5.10;99.90
5802;DHT22;2927;49.366;8.530;2023-01-04T02:06:00;5.10;99.90
5802;DHT22;2927;49.366;8.530;2023-01-04T02:08:27;5.10;99.90
5802;DHT22;2927;49.366;8.530;2023-01-04T02:10:54;5.10;99.90
5802;DHT22;2927;49.366;8.530;2023-01-04T02:13:25;5.10;99.90
5802;DHT22;2927;49.366;8.530;2023-01-04T02:16:25;5.10;99.90
5802;DHT22;2927;49.366;8.530;2023-01-04T02:19:25;5.10;99.90
5802;DHT22;2927;49.366;8.530;2023-01-04T02:22:20;5.10;99.90
5802;DHT22;2927;49.366;8.530;2023-01-04T02:25:16;5.10;99.90
5802;DHT22;2927;49.366;8.530;2023-01-04T02:27:49;5.10;99.90
5802;DHT22;2927;49.366;8.530;2023-01-04T02:38:29;5.20;99.90
5802;DHT22;2927;49.366;8.530;2023-01-04T02:41:07;5.30;99.90
5802;DHT22;2927;49.366;8.530;2023-01-04T02:43:56;5.30;99.90
5802;DHT22;2927;49.366;8.530;2023-01-04T02:46:58;5.30;99.90
5802;DHT22;2927;49.366;8.530;2023-01-04T02:49:25;5.30;99.90
5802;DHT22;2927;49.366;8.530;2023-01-04T02:52:10;5.30;99.90
5802;DHT22;2927;49.366;8.530;2023-01-04T02:54:36;5.30;99.90
5802;DHT22;2927;49.366;8.530;2023-01-04T02:57:20;5.30;99.90
5802;DHT22;2927;49.366;8.530;2023-01-04T03:00:01;5.30;99.90
5802;DHT22;2927;49.366;8.530;2023-01-04T03:02:54;5.20;99.90
5802;DHT22;2927;49.366;8.530;2023-01-04T03:06:15;5.20;99.90
5802;DHT22;2927;49.366;8.530;2023-01-04T03:11:24;5.20;99.90
5802;DHT22;2927;49.366;8.530;2023-01-04T03:14:20;5.20;99.90
5802;DHT22;2927;49.366;8.530;2023-01-04T03:16:47;5.20;99.90
5802;DHT22;2927;49.366;8.530;2023-01-04T03:19:16;5.20;99.90
5802;DHT22;2927;49.366;8.530;2023-01-04T03:22:03;5.20;99.90
5802;DHT22;2927;49.366;8.530;2023-01-04T03:24:31;5.30;99.90
5802;DHT22;2927;49.366;8.530;2023-01-04T03:27:16;5.30;99.90
5802;DHT22;2927;49.366;8.530;2023-01-04T03:30:09;5.30;99.90
5802;DHT22;2927;49.366;8.530;2023-01-04T03:33:05;5.30;99.90
5802;DHT22;2927;49.366;8.530;2023-01-04T03:38:44;5.30;99.90
5802;DHT22;2927;49.366;8.530;2023-01-04T03:41:36;5.30;99.90
5802;DHT22;2927;49.366;8.530;2023-01-04T03:44:46;5.30;99.90
5802;DHT22;2927;49.366;8.530;2023-01-04T03:47:58;5.30;99.90
5802;DHT22;2927;49.366;8.530;2023-01-04T03:51:34;5.40;99.90
5802;DHT22;2927;49.366;8.530;2023-01-04T03:53:59;5.30;99.90
5802;DHT22;2927;49.366;8.530;2023-01-04T03:56:28;5.30;99.90
5802;DHT22;2927;49.366;8.530;2023-01-04T03:58:55;5.40;99.90
5802;DHT22;2927;49.366;8.530;2023-01-04T04:01:22;5.40;99.90
5802;DHT22;2927;49.366;8.530;2023-01-04T04:03:48;5.40;99.90
5802;DHT22;2927;49.366;8.530;2023-01-04T04:06:32;5.40;99.90
5802;DHT22;2927;49.366;8.530;2023-01-04T04:09:16;5.40;99.90
5802;DHT22;2927;49.366;8.530;2023-01-04T04:11:42;5.40;99.90
5802;DHT22;2927;49.366;8.530;2023-01-04T04:14:07;5.40;99.90
5802;DHT22;2927;49.366;8.530;2023-01-04T04:16:33;5.40;99.90
5802;DHT22;2927;49.366;8.530;2023-01-04T04:18:58;5.40;99.90
5802;DHT22;2927;49.366;8.530;2023-01-04T04:21:24;5.40;99.90
5802;DHT22;2927;49.366;8.530;2023-01-04T04:23:50;5.30;99.90
5802;DHT22;2927;49.366;8.530;2023-01-04T04:26:16;5.30;99.90
5802;DHT22;2927;49.366;8.530;2023-01-04T04:28:42;5.30;99.90
5802;DHT22;2927;49.366;8.530;2023-01-04T04:31:08;5.30;99.90
5802;DHT22;2927;49.366;8.530;2023-01-04T04:33:33;5.30;99.90
5802;DHT22;2927;49.366;8.530;2023-01-04T04:35:59;5.20;99.90
5802;DHT22;2927;49.366;8.530;2023-01-04T04:38:24;5.30;99.90
5802;DHT22;2927;49.366;8.530;2023-01-04T04:40:50;5.30;99.90
5802;DHT22;2927;49.366;8.530;2023-01-04T04:43:34;5.30;99.90
5802;DHT22;2927;49.366;8.530;2023-01-04T04:46:00;5.30;99.90
5802;DHT22;2927;49.366;8.530;2023-01-04T04:48:26;5.30;99.90
5802;DHT22;2927;49.366;8.530;2023-01-04T04:50:51;5.30;99.90
5802;DHT22;2927;49.366;8.530;2023-01-04T04:53:17;5.30;99.90
5802;DHT22;2927;49.366;8.530;2023-01-04T04:55:42;5.30;99.90
5802;DHT22;2927;49.366;8.530;2023-01-04T04:58:08;5.30;99.90
5802;DHT22;2927;49.366;8.530;2023-01-04T05:00:33;5.40;99.90
5802;DHT22;2927;49.366;8.530;2023-01-04T05:03:00;5.40;99.90
5802;DHT22;2927;49.366;8.530;2023-01-04T05:05:25;5.40;99.90
5802;DHT22;2927;49.366;8.530;2023-01-04T05:07:51;5.40;99.90
5802;DHT22;2927;49.366;8.530;2023-01-04T05:10:16;5.40;99.90
5802;DHT22;2927;49.366;8.530;2023-01-04T05:12:42;5.40;99.90
5802;DHT22;2927;49.366;8.530;2023-01-04T05:15:40;5.40;99.90
5802;DHT22;2927;49.366;8.530;2023-01-04T05:18:07;5.40;99.90
5802;DHT22;2927;49.366;8.530;2023-01-04T05:20:33;5.50;99.90
5802;DHT22;2927;49.366;8.530;2023-01-04T05:22:59;5.50;99.90
5802;DHT22;2927;49.366;8.530;2023-01-04T05:25:25;5.50;99.90
5802;DHT22;2927;49.366;8.530;2023-01-04T05:27:51;5.50;99.90
5802;DHT22;2927;49.366;8.530;2023-01-04T05:30:17;5.50;99.90
5802;DHT22;2927;49.366;8.530;2023-01-04T05:33:01;5.50;99.90
5802;DHT22;2927;49.366;8.530;2023-01-04T05:35:27;5.50;99.90
5802;DHT22;2927;49.366;8.530;2023-01-04T05:37:53;5.60;99.90
5802;DHT22;2927;49.366;8.530;2023-01-04T05:40:19;5.60;99.90
5802;DHT22;2927;49.366;8.530;2023-01-04T05:42:45;5.60;99.90
5802;DHT22;2927;49.366;8.530;2023-01-04T05:45:13;5.60;99.90
5802;DHT22;2927;49.366;8.530;2023-01-04T05:47:38;5.60;99.90
5802;DHT22;2927;49.366;8.530;2023-01-04T05:50:04;5.70;99.90
5802;DHT22;2927;49.366;8.530;2023-01-04T05:52:30;5.70;99.90
5802;DHT22;2927;49.366;8.530;2023-01-04T05:54:56;5.70;99.90
5802;DHT22;2927;49.366;8.530;2023-01-04T05:57:21;5.70;99.90
5802;DHT22;2927;49.366;8.530;2023-01-04T05:59:47;5.70;99.90
5802;DHT22;2927;49.366;8.530;2023-01-04T06:02:18;5.70;99.90
5802;DHT22;2927;49.366;8.530;2023-01-04T06:04:44;5.70;99.90
5802;DHT22;2927;49.366;8.530;2023-01-04T06:07:09;5.80;99.90
5802;DHT22;2927;49.366;8.530;2023-01-04T06:09:35;5.80;99.90
5802;DHT22;2927;49.366;8.530;2023-01-04T06:12:00;5.80;99.90
5802;DHT22;2927;49.366;8.530;2023-01-04T06:14:26;5.80;99.90
5802;DHT22;2927;49.366;8.530;2023-01-04T06:16:51;5.90;99.90
5802;DHT22;2927;49.366;8.530;2023-01-04T06:19:17;5.90;99.90
5802;DHT22;2927;49.366;8.530;2023-01-04T06:21:42;5.90;99.90
5802;DHT22;2927;49.366;8.530;2023-01-04T06:24:09;6.00;99.90
5802;DHT22;2927;49.366;8.530;2023-01-04T06:26:35;6.00;99.90
5802;DHT22;2927;49.366;8.530;2023-01-04T06:29:00;6.00;99.90
5802;DHT22;2927;49.366;8.530;2023-01-04T06:31:26;6.10;99.90
5802;DHT22;2927;49.366;8.530;2023-01-04T06:33:51;6.10;99.90
5802;DHT22;2927;49.366;8.530;2023-01-04T06:36:17;6.00;99.90
5802;DHT22;2927;49.366;8.530;2023-01-04T06:38:43;6.10;99.90
5802;DHT22;2927;49.366;8.530;2023-01-04T06:41:08;6.10;99.90
5802;DHT22;2927;49.366;8.530;2023-01-04T06:43:34;6.10;99.90
5802;DHT22;2927;49.366;8.530;2023-01-04T06:45:59;6.10;99.90
5802;DHT22;2927;49.366;8.530;2023-01-04T06:48:26;6.00;99.90
5802;DHT22;2927;49.366;8.530;2023-01-04T06:50:51;6.10;99.90
5802;DHT22;2927;49.366;8.530;2023-01-04T06:53:17;6.10;99.90
5802;DHT22;2927;49.366;8.530;2023-01-04T06:55:43;6.10;99.90
5802;DHT22;2927;49.366;8.530;2023-01-04T06:58:09;6.10;99.90
5802;DHT22;2927;49.366;8.530;2023-01-04T07:00:34;6.10;99.90
5802;DHT22;2927;49.366;8.530;2023-01-04T07:03:00;6.10;99.90
5802;DHT22;2927;49.366;8.530;2023-01-04T07:05:26;6.20;99.90
5802;DHT22;2927;49.366;8.530;2023-01-04T07:07:51;6.20;99.90
5802;DHT22;2927;49.366;8.530;2023-01-04T07:10:17;6.20;99.90
5802;DHT22;2927;49.366;8.530;2023-01-04T07:12:43;6.30;99.90
5802;DHT22;2927;49.366;8.530;2023-01-04T07:15:08;6.30;99.90
5802;DHT22;2927;49.366;8.530;2023-01-04T07:17:34;6.30;99.90
5802;DHT22;2927;49.366;8.530;2023-01-04T07:20:00;6.30;99.90
5802;DHT22;2927;49.366;8.530;2023-01-04T07:22:25;6.40;99.90
5802;DHT22;2927;49.366;8.530;2023-01-04T07:24:51;6.40;99.90
5802;DHT22;2927;49.366;8.530;2023-01-04T07:29:52;6.50;99.90
5802;DHT22;2927;49.366;8.530;2023-01-04T07:32:17;6.50;99.90
5802;DHT22;2927;49.366;8.530;2023-01-04T07:34:43;6.50;99.90
5802;DHT22;2927;49.366;8.530;2023-01-04T07:37:08;6.40;99.90
5802;DHT22;2927;49.366;8.530;2023-01-04T07:39:34;6.40;99.90
5802;DHT22;2927;49.366;8.530;2023-01-04T07:41:59;6.40;99.90
5802;DHT22;2927;49.366;8.530;2023-01-04T07:44:25;6.50;99.90
5802;DHT22;2927;49.366;8.530;2023-01-04T07:46:52;6.50;99.90
5802;DHT22;2927;49.366;8.530;2023-01-04T07:49:18;6.50;99.90
5802;DHT22;2927;49.366;8.530;2023-01-04T07:51:48;6.60;99.90
5802;DHT22;2927;49.366;8.530;2023-01-04T07:54:15;6.60;99.90
5802;DHT22;2927;49.366;8.530;2023-01-04T07:56:41;6.60;99.90
5802;DHT22;2927;49.366;8.530;2023-01-04T07:59:07;6.60;99.90
5802;DHT22;2927;49.366;8.530;2023-01-04T08:01:33;6.60;99.90
5802;DHT22;2927;49.366;8.530;2023-01-04T08:04:00;6.60;99.90
5802;DHT22;2927;49.366;8.530;2023-01-04T08:09:00;6.70;99.90
5802;DHT22;2927;49.366;8.530;2023-01-04T08:11:26;6.70;99.90
5802;DHT22;2927;49.366;8.530;2023-01-04T08:13:52;6.70;99.90
5802;DHT22;2927;49.366;8.530;2023-01-04T08:16:23;6.80;99.90
5802;DHT22;2927;49.366;8.530;2023-01-04T08:18:57;6.80;99.90
5802;DHT22;2927;49.366;8.530;2023-01-04T08:21:23;6.90;99.90
5802;DHT22;2927;49.366;8.530;2023-01-04T08:23:50;6.90;99.90
5802;DHT22;2927;49.366;8.530;2023-01-04T08:26:16;7.00;99.90
5802;DHT22;2927;49.366;8.530;2023-01-04T08:28:42;7.00;99.90
5802;DHT22;2927;49.366;8.530;2023-01-04T08:31:11;7.00;99.90
5802;DHT22;2927;49.366;8.530;2023-01-04T08:33:38;7.10;99.90
5802;DHT22;2927;49.366;8.530;2023-01-04T08:36:16;7.10;99.90
5802;DHT22;2927;49.366;8.530;2023-01-04T08:38:43;7.10;99.90
5802;DHT22;2927;49.366;8.530;2023-01-04T08:41:08;7.10;99.90
5802;DHT22;2927;49.366;8.530;2023-01-04T08:43:34;7.20;99.90
5802;DHT22;2927;49.366;8.530;2023-01-04T08:46:03;7.20;99.90
5802;DHT22;2927;49.366;8.530;2023-01-04T08:48:30;7.20;99.90
5802;DHT22;2927;49.366;8.530;2023-01-04T08:51:03;7.30;99.90
5802;DHT22;2927;49.366;8.530;2023-01-04T08:56:05;7.40;99.90
5802;DHT22;2927;49.366;8.530;2023-01-04T08:58:33;7.40;99.90
5802;DHT22;2927;49.366;8.530;2023-01-04T09:01:00;7.50;99.90
5802;DHT22;2927;49.366;8.530;2023-01-04T09:03:27;7.50;99.90
5802;DHT22;2927;49.366;8.530;2023-01-04T09:05:53;7.50;99.90
5802;DHT22;2927;49.366;8.530;2023-01-04T09:08:18;7.50;99.90
5802;DHT22;2927;49.366;8.530;2023-01-04T09:10:44;7.60;99.90
5802;DHT22;2927;49.366;8.530;2023-01-04T09:13:09;7.60;99.90
5802;DHT22;2927;49.366;8.530;2023-01-04T09:15:35;7.60;99.90
5802;DHT22;2927;49.366;8.530;2023-01-04T09:18:01;7.60;99.90
5802;DHT22;2927;49.366;8.530;2023-01-04T09:20:27;7.60;99.90
5802;DHT22;2927;49.366;8.530;2023-01-04T09:22:53;7.70;99.90
5802;DHT22;2927;49.366;8.530;2023-01-04T09:25:20;7.70;99.90
5802;DHT22;2927;49.366;8.530;2023-01-04T09:27:46;7.70;99.90
5802;DHT22;2927;49.366;8.530;2023-01-04T09:30:12;7.90;99.90
5802;DHT22;2927;49.366;8.530;2023-01-04T09:32:37;7.90;99.90
5802;DHT22;2927;49.366;8.530;2023-01-04T09:35:03;7.90;99.90
5802;DHT22;2927;49.366;8.530;2023-01-04T09:37:28;7.90;99.90
5802;DHT22;2927;49.366;8.530;2023-01-04T09:39:54;8.00;99.90
5802;DHT22;2927;49.366;8.530;2023-01-04T09:42:28;8.10;99.90
5802;DHT22;2927;49.366;8.530;2023-01-04T09:44:58;8.10;99.90
5802;DHT22;2927;49.366;8.530;2023-01-04T09:47:43;8.10;99.90
5802;DHT22;2927;49.366;8.530;2023-01-04T09:50:17;8.00;99.90
5802;DHT22;2927;49.366;8.530;2023-01-04T09:53:04;8.10;99.90
5802;DHT22;2927;49.366;8.530;2023-01-04T09:55:37;8.10;99.90
5802;DHT22;2927;49.366;8.530;2023-01-04T10:01:14;8.10;99.90
5802;DHT22;2927;49.366;8.530;2023-01-04T10:03:45;8.20;99.90
5802;DHT22;2927;49.366;8.530;2023-01-04T10:06:12;8.20;99.90
5802;DHT22;2927;49.366;8.530;2023-01-04T10:08:43;8.20;99.90
5802;DHT22;2927;49.366;8.530;2023-01-04T10:21:52;8.40;99.90
5802;DHT22;2927;49.366;8.530;2023-01-04T10:27:18;8.40;99.90
5802;DHT22;2927;49.366;8.530;2023-01-04T10:29:58;8.40;99.90
5802;DHT22;2927;49.366;8.530;2023-01-04T10:32:41;8.30;99.90
5802;DHT22;2927;49.366;8.530;2023-01-04T10:37:47;8.30;99.90
5802;DHT22;2927;49.366;8.530;2023-01-04T10:40:15;8.20;99.90
5802;DHT22;2927;49.366;8.530;2023-01-04T10:42:59;8.20;99.90
5802;DHT22;2927;49.366;8.530;2023-01-04T10:45:45;8.20;99.90
5802;DHT22;2927;49.366;8.530;2023-01-04T10:48:36;8.20;99.90
5802;DHT22;2927;49.366;8.530;2023-01-04T10:51:05;8.20;99.90
5802;DHT22;2927;49.366;8.530;2023-01-04T10:54:19;8.30;99.90
5802;DHT22;2927;49.366;8.530;2023-01-04T10:56:38;8.30;99.90
5802;DHT22;2927;49.366;8.530;2023-01-04T10:59:06;8.30;99.90
5802;DHT22;2927;49.366;8.530;2023-01-04T11:01:41;8.30;99.90
5802;DHT22;2927;49.366;8.530;2023-01-04T11:06:52;8.40;99.90
5802;DHT22;2927;49.366;8.530;2023-01-04T11:09:41;8.30;99.90
5802;DHT22;2927;49.366;8.530;2023-01-04T11:12:10;8.40;99.90
5802;DHT22;2927;49.366;8.530;2023-01-04T11:17:08;8.30;99.90
5802;DHT22;2927;49.366;8.530;2023-01-04T11:27:30;8.40;99.90
5802;DHT22;2927;49.366;8.530;2023-01-04T11:30:03;8.40;99.90
5802;DHT22;2927;49.366;8.530;2023-01-04T11:35:52;8.40;99.90
5802;DHT22;2927;49.366;8.530;2023-01-04T11:38:21;8.50;99.90
5802;DHT22;2927;49.366;8.530;2023-01-04T11:41:04;8.50;99.90
5802;DHT22;2927;49.366;8.530;2023-01-04T11:43:35;8.50;99.90
5802;DHT22;2927;49.366;8.530;2023-01-04T11:48:44;8.60;99.90
5802;DHT22;2927;49.366;8.530;2023-01-04T11:53:57;8.60;99.90
5802;DHT22;2927;49.366;8.530;2023-01-04T11:56:24;8.60;99.90
5802;DHT22;2927;49.366;8.530;2023-01-04T11:59:05;8.70;99.90
5802;DHT22;2927;49.366;8.530;2023-01-04T12:01:38;8.70;99.90
5802;DHT22;2927;49.366;8.530;2023-01-04T12:04:28;8.60;99.90
5802;DHT22;2927;49.366;8.530;2023-01-04T12:07:09;8.70;99.90
5802;DHT22;2927;49.366;8.530;2023-01-04T12:09:35;8.70;99.90
5802;DHT22;2927;49.366;8.530;2023-01-04T12:12:01;8.70;99.90
5802;DHT22;2927;49.366;8.530;2023-01-04T12:14:35;8.80;99.90
5802;DHT22;2927;49.366;8.530;2023-01-04T12:19:39;8.80;99.90
5802;DHT22;2927;49.366;8.530;2023-01-04T12:22:21;8.80;99.90
5802;DHT22;2927;49.366;8.530;2023-01-04T12:24:48;8.90;99.90
5802;DHT22;2927;49.366;8.530;2023-01-04T12:27:14;9.00;99.90
5802;DHT22;2927;49.366;8.530;2023-01-04T12:29:58;9.00;99.90
5802;DHT22;2927;49.366;8.530;2023-01-04T12:34:49;9.00;99.90
5802;DHT22;2927;49.366;8.530;2023-01-04T12:40:50;9.20;99.90
5802;DHT22;2927;49.366;8.530;2023-01-04T12:43:21;9.20;99.90
5802;DHT22;2927;49.366;8.530;2023-01-04T12:46:31;9.20;99.90
5802;DHT22;2927;49.366;8.530;2023-01-04T12:54:52;9.20;99.90
5802;DHT22;2927;49.366;8.530;2023-01-04T12:57:37;9.20;99.90
5802;DHT22;2927;49.366;8.530;2023-01-04T13:02:36;9.20;99.90
5802;DHT22;2927;49.366;8.530;2023-01-04T13:07:54;9.30;99.90
5802;DHT22;2927;49.366;8.530;2023-01-04T13:10:31;9.30;99.90
5802;DHT22;2927;49.366;8.530;2023-01-04T13:13:30;9.40;99.90
5802;DHT22;2927;49.366;8.530;2023-01-04T13:18:46;9.40;99.90
5802;DHT22;2927;49.366;8.530;2023-01-04T13:24:02;9.40;99.90
5802;DHT22;2927;49.366;8.530;2023-01-04T13:26:39;9.40;99.90
5802;DHT22;2927;49.366;8.530;2023-01-04T13:29:11;9.50;99.90
5802;DHT22;2927;49.366;8.530;2023-01-04T13:32:03;9.40;99.90
5802;DHT22;2927;49.366;8.530;2023-01-04T13:34:35;9.40;99.90
5802;DHT22;2927;49.366;8.530;2023-01-04T13:37:19;9.50;99.90
5802;DHT22;2927;49.366;8.530;2023-01-04T13:39:58;9.50;99.90
5802;DHT22;2927;49.366;8.530;2023-01-04T13:42:28;9.50;99.90
5802;DHT22;2927;49.366;8.530;2023-01-04T13:47:42;9.50;99.90
5802;DHT22;2927;49.366;8.530;2023-01-04T13:52:45;9.50;99.90
5802;DHT22;2927;49.366;8.530;2023-01-04T13:57:56;9.60;99.90
5802;DHT22;2927;49.366;8.530;2023-01-04T14:00:34;9.50;99.90
5802;DHT22;2927;49.366;8.530;2023-01-04T14:05:35;9.60;99.90
5802;DHT22;2927;49.366;8.530;2023-01-04T14:08:07;9.60;99.90
5802;DHT22;2927;49.366;8.530;2023-01-04T14:10:34;9.50;99.90
5802;DHT22;2927;49.366;8.530;2023-01-04T14:13:02;9.50;99.90
5802;DHT22;2927;49.366;8.530;2023-01-04T14:15:27;9.50;99.90
5802;DHT22;2927;49.366;8.530;2023-01-04T14:17:55;9.50;99.90
5802;DHT22;2927;49.366;8.530;2023-01-04T14:22:51;9.50;99.90
5802;DHT22;2927;49.366;8.530;2023-01-04T14:30:46;9.40;99.90
5802;DHT22;2927;49.366;8.530;2023-01-04T14:35:37;9.50;99.90
5802;DHT22;2927;49.366;8.530;2023-01-04T14:38:13;9.60;99.90
5802;DHT22;2927;49.366;8.530;2023-01-04T14:40:40;9.60;99.90
5802;DHT22;2927;49.366;8.530;2023-01-04T14:45:59;9.60;99.90
5802;DHT22;2927;49.366;8.530;2023-01-04T14:48:25;9.60;99.90
5802;DHT22;2927;49.366;8.530;2023-01-04T14:50:50;9.60;99.90
5802;DHT22;2927;49.366;8.530;2023-01-04T14:53:16;9.70;99.90
5802;DHT22;2927;49.366;8.530;2023-01-04T14:58:15;9.70;99.90
5802;DHT22;2927;49.366;8.530;2023-01-04T15:00:40;9.80;99.90
5802;DHT22;2927;49.366;8.530;2023-01-04T15:03:06;9.70;99.90
5802;DHT22;2927;49.366;8.530;2023-01-04T15:05:33;9.70;99.90
5802;DHT22;2927;49.366;8.530;2023-01-04T15:07:59;9.70;99.90
5802;DHT22;2927;49.366;8.530;2023-01-04T15:10:28;9.70;99.90
5802;DHT22;2927;49.366;8.530;2023-01-04T15:12:54;9.70;99.90
5802;DHT22;2927;49.366;8.530;2023-01-04T15:15:20;9.70;99.90
5802;DHT22;2927;49.366;8.530;2023-01-04T15:17:46;9.70;99.90
5802;DHT22;2927;49.366;8.530;2023-01-04T15:20:12;9.70;99.90
5802;DHT22;2927;49.366;8.530;2023-01-04T15:22:39;9.70;99.90
5802;DHT22;2927;49.366;8.530;2023-01-04T15:25:05;9.70;99.90
5802;DHT22;2927;49.366;8.530;2023-01-04T15:27:31;9.70;99.90
5802;DHT22;2927;49.366;8.530;2023-01-04T15:29:56;9.70;99.90
5802;DHT22;2927;49.366;8.530;2023-01-04T15:32:22;9.70;99.90
5802;DHT22;2927;49.366;8.530;2023-01-04T15:34:48;9.70;99.90
5802;DHT22;2927;49.366;8.530;2023-01-04T15:37:14;9.70;99.90
5802;DHT22;2927;49.366;8.530;2023-01-04T15:39:40;9.60;99.90
5802;DHT22;2927;49.366;8.530;2023-01-04T15:42:05;9.60;99.90
5802;DHT22;2927;49.366;8.530;2023-01-04T15:44:49;9.60;99.90
5802;DHT22;2927;49.366;8.530;2023-01-04T15:47:15;9.60;99.90
5802;DHT22;2927;49.366;8.530;2023-01-04T15:49:40;9.60;99.90
5802;DHT22;2927;49.366;8.530;2023-01-04T15:52:06;9.60;99.90
5802;DHT22;2927;49.366;8.530;2023-01-04T15:54:31;9.60;99.90
5802;DHT22;2927;49.366;8.530;2023-01-04T15:56:57;9.60;99.90
5802;DHT22;2927;49.366;8.530;2023-01-04T15:59:22;9.60;99.90
5802;DHT22;2927;49.366;8.530;2023-01-04T16:01:48;9.60;99.90
5802;DHT22;2927;49.366;8.530;2023-01-04T16:04:13;9.50;99.90
5802;DHT22;2927;49.366;8.530;2023-01-04T16:06:39;9.50;99.90
5802;DHT22;2927;49.366;8.530;2023-01-04T16:09:05;9.60;99.90
5802;DHT22;2927;49.366;8.530;2023-01-04T16:11:31;9.60;99.90
5802;DHT22;2927;49.366;8.530;2023-01-04T16:13:57;9.60;99.90
5802;DHT22;2927;49.366;8.530;2023-01-04T16:16:25;9.60;99.90
5802;DHT22;2927;49.366;8.530;2023-01-04T16:18:56;9.60;99.90
5802;DHT22;2927;49.366;8.530;2023-01-04T16:21:24;9.50;99.90
5802;DHT22;2927;49.366;8.530;2023-01-04T16:23:55;9.50;99.90
5802;DHT22;2927;49.366;8.530;2023-01-04T16:26:21;9.50;99.90
5802;DHT22;2927;49.366;8.530;2023-01-04T16:28:54;9.50;99.90
5802;DHT22;2927;49.366;8.530;2023-01-04T16:31:20;9.50;99.90
5802;DHT22;2927;49.366;8.530;2023-01-04T16:33:50;9.50;99.90
5802;DHT22;2927;49.366;8.530;2023-01-04T16:36:16;9.50;99.90
5802;DHT22;2927;49.366;8.530;2023-01-04T16:38:44;9.40;99.90
5802;DHT22;2927;49.366;8.530;2023-01-04T16:41:12;9.40;99.90
5802;DHT22;2927;49.366;8.530;2023-01-04T16:46:26;9.30;99.90
5802;DHT22;2927;49.366;8.530;2023-01-04T16:48:54;9.30;99.90
5802;DHT22;2927;49.366;8.530;2023-01-04T16:51:20;9.40;99.90
5802;DHT22;2927;49.366;8.530;2023-01-04T16:53:46;9.30;99.90
5802;DHT22;2927;49.366;8.530;2023-01-04T16:56:14;9.30;99.90
5802;DHT22;2927;49.366;8.530;2023-01-04T16:58:40;9.20;99.90
5802;DHT22;2927;49.366;8.530;2023-01-04T17:03:39;9.20;99.90
5802;DHT22;2927;49.366;8.530;2023-01-04T17:06:13;9.20;99.90
5802;DHT22;2927;49.366;8.530;2023-01-04T17:08:39;9.20;99.90
5802;DHT22;2927;49.366;8.530;2023-01-04T17:11:19;9.20;99.90
5802;DHT22;2927;49.366;8.530;2023-01-04T17:13:45;9.20;99.90
5802;DHT22;2927;49.366;8.530;2023-01-04T17:16:11;9.20;99.90
5802;DHT22;2927;49.366;8.530;2023-01-04T17:18:37;9.20;99.90
5802;DHT22;2927;49.366;8.530;2023-01-04T17:21:05;9.20;99.90
5802;DHT22;2927;49.366;8.530;2023-01-04T17:23:34;9.20;99.90
5802;DHT22;2927;49.366;8.530;2023-01-04T17:26:06;9.20;99.90
5802;DHT22;2927;49.366;8.530;2023-01-04T17:28:33;9.20;99.90
5802;DHT22;2927;49.366;8.530;2023-01-04T17:30:58;9.20;99.90
5802;DHT22;2927;49.366;8.530;2023-01-04T17:33:27;9.20;99.90
5802;DHT22;2927;49.366;8.530;2023-01-04T17:35:53;9.20;99.90
5802;DHT22;2927;49.366;8.530;2023-01-04T17:38:19;9.20;99.90
5802;DHT22;2927;49.366;8.530;2023-01-04T17:40:44;9.20;99.90
5802;DHT22;2927;49.366;8.530;2023-01-04T17:43:10;9.20;99.90
5802;DHT22;2927;49.366;8.530;2023-01-04T17:45:35;9.20;99.90
5802;DHT22;2927;49.366;8.530;2023-01-04T17:48:01;9.20;99.90
5802;DHT22;2927;49.366;8.530;2023-01-04T17:50:27;9.20;99.90
5802;DHT22;2927;49.366;8.530;2023-01-04T17:52:52;9.20;99.90
5802;DHT22;2927;49.366;8.530;2023-01-04T17:55:20;9.20;99.90
5802;DHT22;2927;49.366;8.530;2023-01-04T17:57:46;9.20;99.90
5802;DHT22;2927;49.366;8.530;2023-01-04T18:00:12;9.10;99.90
5802;DHT22;2927;49.366;8.530;2023-01-04T18:02:42;9.20;99.90
5802;DHT22;2927;49.366;8.530;2023-01-04T18:05:08;9.20;99.90
5802;DHT22;2927;49.366;8.530;2023-01-04T18:07:34;9.20;99.90
5802;DHT22;2927;49.366;8.530;2023-01-04T18:10:00;9.20;99.90
5802;DHT22;2927;49.366;8.530;2023-01-04T18:12:26;9.20;99.90
5802;DHT22;2927;49.366;8.530;2023-01-04T18:14:54;9.20;99.90
5802;DHT22;2927;49.366;8.530;2023-01-04T18:17:19;9.10;99.90
5802;DHT22;2927;49.366;8.530;2023-01-04T18:19:45;9.10;99.90
5802;DHT22;2927;49.366;8.530;2023-01-04T18:22:10;9.20;99.90
5802;DHT22;2927;49.366;8.530;2023-01-04T18:24:36;9.20;99.90
5802;DHT22;2927;49.366;8.530;2023-01-04T18:27:02;9.20;99.90
5802;DHT22;2927;49.366;8.530;2023-01-04T18:29:27;9.20;99.90
5802;DHT22;2927;49.366;8.530;2023-01-04T18:31:53;9.10;99.90
5802;DHT22;2927;49.366;8.530;2023-01-04T18:34:19;9.10;99.90